Bookmark and Share
Track history (hours):
 

Justice

More information available from US FCC via Universal Licensing System and Coast Guard Vessel Documentation Center.

Last reported at 2014-Apr-24 08:33 UTC. Time now 2014-Apr-24 09:22 UTC.
Position N 42°23' W 071°03'.

Length 30 m; draft 5.8 m.

Type: Tug. MMSI: 367513010.

NotesDate/timePositionNaut miles runAvg speedWind from/ knotsBaromVisibWave heightAir tempDewpointWater temp
2014-Apr-24 08:33N 42°23' W 071°03'0 0.0
2014-Apr-24 07:24N 42°23' W 071°03'0 0.0
2014-Apr-24 06:26N 42°23' W 071°03'0 0.0
2014-Apr-24 05:31N 42°23' W 071°03'0 0.0
2014-Apr-24 04:34N 42°23' W 071°03'0 0.0
2014-Apr-24 03:34N 42°23' W 071°03'0 0.0
2014-Apr-24 02:33N 42°23' W 071°03'0 0.1
2014-Apr-24 01:33N 42°23' W 071°03'2 2.3
2014-Apr-24 00:34N 42°21' W 071°01'0 0.2
2014-Apr-23 23:33N 42°21' W 071°02'0 0.5
2014-Apr-23 22:34N 42°21' W 071°01'2 1.6
2014-Apr-23 21:34N 42°22' W 071°03'1 0.5
2014-Apr-23 20:33N 42°23' W 071°03'0 0.1
2014-Apr-23 19:34N 42°23' W 071°03'0 0.0
2014-Apr-23 18:33N 42°23' W 071°03'0 0.0
2014-Apr-23 17:34N 42°23' W 071°03'1 0.7
2014-Apr-23 16:31N 42°23' W 071°03'1 0.8
2014-Apr-23 15:33N 42°23' W 071°03'5 4.9
2014-Apr-23 14:33N 42°20' W 070°57'2 1.0
2014-Apr-23 12:15N 42°18' W 070°55'4 5.1
2014-Apr-23 11:33N 42°20' W 070°59'4 3.7
2014-Apr-23 10:33N 42°24' W 071°01'3 3.0
2014-Apr-23 09:33N 42°21' W 071°01'0 0.1
2014-Apr-23 08:31N 42°21' W 071°01'2 2.5
2014-Apr-23 07:33N 42°23' W 071°03'1 0.7
2014-Apr-23 05:33N 42°21' W 071°02'3 2.4
2014-Apr-23 04:27N 42°24' W 071°01'2 1.9
2014-Apr-23 03:33N 42°23' W 071°03'0 0.5
2014-Apr-23 02:33N 42°23' W 071°02'0 0.4
2014-Apr-23 01:33N 42°23' W 071°03'0 0.2
2014-Apr-23 00:33N 42°23' W 071°03'0 0.0
2014-Apr-22 23:34N 42°23' W 071°03'0 0.0
2014-Apr-22 22:34N 42°23' W 071°03'0 0.0
2014-Apr-22 21:34N 42°23' W 071°03'1 0.7
2014-Apr-22 20:33N 42°23' W 071°03'2 1.9
2014-Apr-22 19:33N 42°22' W 071°02'1 1.2
2014-Apr-22 18:33N 42°23' W 071°03'0 0.0
2014-Apr-22 17:33N 42°23' W 071°03'1 1.1
2014-Apr-22 16:34N 42°23' W 071°01'1 0.9
2014-Apr-22 15:34N 42°23' W 071°02'1 1.4
2014-Apr-22 14:34N 42°24' W 071°01'1 1.1
2014-Apr-22 13:33N 42°23' W 071°02'0 0.5
2014-Apr-22 12:34N 42°23' W 071°03'0 0.0
2014-Apr-22 11:33N 42°23' W 071°03'0 0.0
2014-Apr-22 10:33N 42°23' W 071°03'0 0.0
2014-Apr-22 09:34N 42°23' W 071°03'0 0.0
2014-Apr-22 08:33N 42°23' W 071°03'0 0.0
2014-Apr-22 07:34N 42°23' W 071°03'0 0.0
2014-Apr-22 06:34N 42°23' W 071°03'4 4.0
2014-Apr-22 05:34N 42°20' W 070°58'0 0.0
2014-Apr-22 04:31N 42°21' W 070°58'0 0.0
2014-Apr-22 03:33N 42°21' W 070°58'0 0.1
2014-Apr-22 02:33N 42°20' W 070°58'1 0.9
2014-Apr-22 01:34N 42°20' W 070°59'1 1.3
2014-Apr-22 00:33N 42°20' W 070°57'1 0.3
2014-Apr-21 21:34N 42°20' W 070°56'5 5.3
2014-Apr-21 20:33N 42°23' W 071°02'1 0.6
2014-Apr-21 19:34N 42°23' W 071°03'0 0.0
2014-Apr-21 18:33N 42°23' W 071°03'0 0.0
2014-Apr-21 17:33N 42°23' W 071°03'0 0.0
2014-Apr-21 16:33N 42°23' W 071°03'0 0.0
2014-Apr-21 15:28N 42°23' W 071°03'0 0.0
2014-Apr-21 14:34N 42°23' W 071°03'0 0.0
2014-Apr-21 13:33N 42°23' W 071°03'0 0.0
2014-Apr-21 12:33N 42°23' W 071°03'1 1.3
2014-Apr-21 11:33N 42°24' W 071°01'1 1.4
2014-Apr-21 10:34N 42°23' W 071°03'1 1.3
2014-Apr-21 09:29N 42°24' W 071°01'1 1.3
2014-Apr-21 08:33N 42°23' W 071°02'0 0.3
2014-Apr-21 07:33N 42°23' W 071°03'0 0.0
2014-Apr-21 06:33N 42°23' W 071°03'0 0.0
2014-Apr-21 05:33N 42°23' W 071°03'0 0.0
2014-Apr-21 04:34N 42°23' W 071°03'0 0.0
2014-Apr-21 03:34N 42°23' W 071°03'0 0.0
2014-Apr-21 02:33N 42°23' W 071°03'0 0.3
2014-Apr-21 01:34N 42°23' W 071°03'4 3.5
2014-Apr-21 00:33N 42°20' W 070°60'4 1.9
2014-Apr-20 22:25N 42°17' W 070°56'1 0.3
2014-Apr-20 19:31N 42°18' W 070°55'7 6.8
2014-Apr-20 18:33N 42°22' W 071°03'1 0.9
2014-Apr-20 17:33N 42°23' W 071°03'0 0.0
2014-Apr-20 16:34N 42°23' W 071°03'2 1.6
2014-Apr-20 15:30N 42°24' W 071°01'0 0.1
2014-Apr-20 14:23N 42°24' W 071°01'2 2.7
2014-Apr-20 13:33N 42°22' W 071°03'1 0.8
2014-Apr-20 12:33N 42°23' W 071°03'0 0.0
2014-Apr-20 11:33N 42°23' W 071°03'1 0.8
2014-Apr-20 10:34N 42°22' W 071°03'4 3.7
2014-Apr-20 09:34N 42°20' W 070°58'0 0.1
2014-Apr-20 08:33N 42°20' W 070°58'0 0.0
2014-Apr-20 07:33N 42°20' W 070°58'0 0.0
2014-Apr-20 06:18N 42°20' W 070°58'4 5.2
2014-Apr-20 05:33N 42°22' W 071°03'1 1.0
2014-Apr-20 04:34N 42°23' W 071°03'0 0.1
2014-Apr-20 03:29N 42°23' W 071°04'1 0.9
2014-Apr-20 02:33N 42°23' W 071°03'0 0.0
2014-Apr-20 01:33N 42°23' W 071°03'0 0.0
2014-Apr-20 00:34N 42°23' W 071°03'0 0.0
2014-Apr-19 23:33N 42°23' W 071°03'0 0.0
2014-Apr-19 22:33N 42°23' W 071°03'0 0.0
2014-Apr-19 21:33N 42°23' W 071°03'0 0.0
2014-Apr-19 20:34N 42°23' W 071°03'0 0.0
2014-Apr-19 19:33N 42°23' W 071°03'0 0.0
2014-Apr-19 18:33N 42°23' W 071°03'0 0.1
2014-Apr-19 17:33N 42°23' W 071°03'0 0.3
2014-Apr-19 16:34N 42°23' W 071°03'0 0.5
2014-Apr-19 15:33N 42°23' W 071°02'3 2.5
2014-Apr-19 14:34N 42°21' W 071°01'2 2.5
2014-Apr-19 13:34N 42°23' W 071°03'0 0.0
2014-Apr-19 12:34N 42°23' W 071°03'0 0.0
2014-Apr-19 11:33N 42°23' W 071°03'1 1.3
2014-Apr-19 10:33N 42°24' W 071°01'2 1.8
2014-Apr-19 09:33N 42°22' W 071°03'1 0.5
2014-Apr-19 08:34N 42°23' W 071°03'0 0.0
2014-Apr-19 07:34N 42°23' W 071°03'0 0.0
2014-Apr-19 06:34N 42°23' W 071°03'1 0.8
2014-Apr-19 05:34N 42°23' W 071°03'1 1.2
2014-Apr-19 04:33N 42°22' W 071°03'1 1.3
2014-Apr-19 03:33N 42°23' W 071°02'1 0.6
2014-Apr-19 02:31N 42°23' W 071°02'0 0.4
2014-Apr-19 01:33N 42°23' W 071°03'0 0.0
2014-Apr-19 00:33N 42°23' W 071°03'0 0.0
2014-Apr-18 23:29N 42°23' W 071°03'0 0.0
2014-Apr-18 22:33N 42°23' W 071°03'1 0.7
2014-Apr-18 21:21N 42°23' W 071°04'1 1.1
2014-Apr-18 20:33N 42°23' W 071°03'0 0.0
2014-Apr-18 19:34N 42°23' W 071°03'0 0.0
2014-Apr-18 18:34N 42°23' W 071°03'0 0.0
2014-Apr-18 17:33N 42°23' W 071°03'0 0.0
2014-Apr-18 16:33N 42°23' W 071°03'0 0.0
2014-Apr-18 15:33N 42°23' W 071°03'0 0.0
2014-Apr-18 14:33N 42°23' W 071°03'0 0.0
2014-Apr-18 13:33N 42°23' W 071°03'1 1.2
2014-Apr-18 12:34N 42°22' W 071°02'1 0.9
2014-Apr-18 11:34N 42°22' W 071°03'0 0.4
2014-Apr-18 10:33N 42°23' W 071°03'0 0.1
2014-Apr-18 09:33N 42°23' W 071°03'0 0.1
2014-Apr-18 08:34N 42°23' W 071°03'0 0.0
2014-Apr-18 07:34N 42°23' W 071°03'0 0.0
2014-Apr-18 06:33N 42°23' W 071°03'0 0.0
2014-Apr-18 05:33N 42°23' W 071°03'0 0.0
2014-Apr-18 04:32N 42°23' W 071°03'0 0.0
2014-Apr-18 03:33N 42°23' W 071°03'0 0.0
2014-Apr-18 02:33N 42°23' W 071°03'0 0.0
2014-Apr-18 01:33N 42°23' W 071°03'0 0.0
2014-Apr-18 00:33N 42°23' W 071°03'1 0.8
2014-Apr-17 23:33N 42°23' W 071°02'0 0.2
2014-Apr-17 22:33N 42°23' W 071°02'2 2.0
2014-Apr-17 21:34N 42°21' W 071°02'2 1.8
2014-Apr-17 20:34N 42°23' W 071°03'0 0.0
2014-Apr-17 19:34N 42°23' W 071°03'0 0.0
2014-Apr-17 18:34N 42°23' W 071°03'0 0.0
2014-Apr-17 17:34N 42°23' W 071°03'0 0.0
2014-Apr-17 16:33N 42°23' W 071°03'0 0.0
2014-Apr-17 15:34N 42°23' W 071°03'0 0.0
2014-Apr-17 14:33N 42°23' W 071°03'0 0.0
2014-Apr-17 13:33N 42°23' W 071°03'0 0.0
2014-Apr-17 12:33N 42°23' W 071°03'0 0.0
2014-Apr-17 11:33N 42°23' W 071°03'0 0.0
2014-Apr-17 10:34N 42°23' W 071°03'0 0.0
2014-Apr-17 09:34N 42°23' W 071°03'0 0.0
2014-Apr-17 08:34N 42°23' W 071°03'0 0.0
2014-Apr-17 07:33N 42°23' W 071°03'1 0.7
2014-Apr-17 06:34N 42°23' W 071°03'1 0.9
2014-Apr-17 05:34N 42°22' W 071°03'1 0.9
2014-Apr-17 04:33N 42°22' W 071°02'2 2.3
2014-Apr-17 03:33N 42°24' W 071°01'1 1.5
2014-Apr-17 02:34N 42°23' W 071°03'0 0.0
2014-Apr-17 01:33N 42°23' W 071°03'0 0.0
2014-Apr-17 00:34N 42°23' W 071°03'0 0.0
2014-Apr-16 23:33N 42°23' W 071°03'0 0.0
2014-Apr-16 22:33N 42°23' W 071°03'0 0.0
2014-Apr-16 21:33N 42°23' W 071°03'0 0.0
2014-Apr-16 20:30N 42°23' W 071°03'0 0.0
2014-Apr-16 19:33N 42°23' W 071°03'5 4.5
2014-Apr-16 18:32N 42°20' W 070°58'2 1.0
2014-Apr-16 16:23N 42°18' W 070°56'5 5.4
2014-Apr-16 15:33N 42°21' W 071°01'1 0.8
2014-Apr-16 14:33N 42°21' W 071°02'2 2.4
2014-Apr-16 13:33N 42°23' W 071°04'2 2.0
2014-Apr-16 12:28N 42°24' W 071°01'2 1.9
2014-Apr-16 11:34N 42°23' W 071°03'0 0.0
2014-Apr-16 10:33N 42°23' W 071°03'0 0.0
2014-Apr-16 09:33N 42°23' W 071°03'0 0.0
2014-Apr-16 08:33N 42°23' W 071°03'4 4.1
2014-Apr-16 07:34N 42°20' W 070°58'5 4.9
2014-Apr-16 06:33N 42°23' W 071°03'1 0.8
2014-Apr-16 05:34N 42°23' W 071°03'0 0.0
2014-Apr-16 04:33N 42°23' W 071°03'0 0.0
2014-Apr-16 03:34N 42°23' W 071°03'0 0.0
2014-Apr-16 02:33N 42°23' W 071°03'0 0.0
2014-Apr-16 01:34N 42°23' W 071°03'2 2.5
2014-Apr-16 00:34N 42°21' W 071°01'0 0.0
2014-Apr-15 23:33N 42°21' W 071°01'0 0.1
2014-Apr-15 22:15N 42°21' W 071°01'0 0.4
2014-Apr-15 21:33N 42°21' W 071°01'0 0.0
2014-Apr-15 20:34N 42°21' W 071°01'3 2.5
2014-Apr-15 19:34N 42°23' W 071°03'0 0.0
2014-Apr-15 18:33N 42°23' W 071°03'0 0.0
2014-Apr-15 17:33N 42°23' W 071°03'0 0.5
2014-Apr-15 16:33N 42°22' W 071°03'1 0.9
2014-Apr-15 15:34N 42°23' W 071°02'1 1.3
2014-Apr-15 14:34N 42°22' W 071°03'1 0.4
2014-Apr-15 12:34N 42°23' W 071°03'0 0.0
2014-Apr-15 11:34N 42°23' W 071°03'1 0.5
2014-Apr-15 10:33N 42°23' W 071°02'0 0.2
2014-Apr-15 09:33N 42°23' W 071°02'0 0.5
2014-Apr-15 08:34N 42°23' W 071°03'0 0.0
2014-Apr-15 06:34N 42°23' W 071°03'0 0.0
2014-Apr-15 05:34N 42°23' W 071°03'0 0.0
2014-Apr-15 03:34N 42°23' W 071°03'0 0.0
2014-Apr-15 02:34N 42°23' W 071°03'1 0.7
2014-Apr-15 01:34N 42°22' W 071°03'3 2.6
2014-Apr-15 00:33N 42°20' W 071°00'1 1.1
2014-Apr-14 23:34N 42°20' W 070°59'4 3.8
2014-Apr-14 22:34N 42°22' W 071°03'0 0.3
2014-Apr-14 21:34N 42°23' W 071°03'0 0.0
2014-Apr-14 20:34N 42°23' W 071°03'0 0.0
2014-Apr-14 19:34N 42°23' W 071°03'0 0.1
2014-Apr-14 18:34N 42°23' W 071°03'0 0.1
2014-Apr-14 17:34N 42°23' W 071°03'0 0.0
2014-Apr-14 16:33N 42°23' W 071°03'0 0.0
2014-Apr-14 15:34N 42°23' W 071°03'0 0.0
2014-Apr-14 14:33N 42°23' W 071°03'0 0.0
2014-Apr-14 11:34N 42°23' W 071°03'0 0.0
2014-Apr-14 10:33N 42°23' W 071°03'1 1.3
2014-Apr-14 09:34N 42°23' W 071°01'1 1.3
2014-Apr-14 08:34N 42°23' W 071°03'  

Dump ship's entire track history

sailing weather and tide predictions

Justice — WDG2184 — position and weather